Time;durP1;ratioP1;P1;durP2;ratioP2;P2;SDS_P1;SDS_P2;PMS_P1;PMS_P2;Temp;Humidity;BMP_temperature;BMP_pressure;BME280_temperature;BME280_humidity;BME280_pressure;Samples;Min_cycle;Max_cycle;Signal;HPM_P1;HPM_P2
2022/06/11 00:01:19;;;;;;;9.20;8.30;;;;;;;17.41;100.00;100347.84;1405012;89;21342;-87
2022/06/11 00:03:48;;;;;;;11.87;9.53;;;;;;;17.45;100.00;100347.76;1489184;86;21529;-88
2022/06/11 00:06:15;;;;;;;24.43;11.53;;;;;;;17.42;100.00;100338.78;1410556;87;21404;-86
2022/06/11 00:08:43;;;;;;;11.03;10.03;;;;;;;17.48;100.00;100333.98;1495174;86;21404;-86
2022/06/11 00:11:10;;;;;;;11.33;9.40;;;;;;;17.47;100.00;100329.67;1411034;87;21434;-85
2022/06/11 00:13:36;;;;;;;10.50;9.23;;;;;;;17.51;100.00;100322.07;1538878;87;21415;-86
2022/06/11 00:16:04;;;;;;;10.67;9.10;;;;;;;17.56;100.00;100316.45;1562590;87;21433;-87
2022/06/11 00:18:32;;;;;;;11.20;10.00;;;;;;;17.58;100.00;100311.73;1418563;87;22150;-86
2022/06/11 00:20:58;;;;;;;11.33;10.13;;;;;;;17.59;100.00;100306.69;1470203;87;21190;-87
2022/06/11 00:23:26;;;;;;;10.27;9.07;;;;;;;17.63;100.00;100315.66;1416725;87;21335;-86
2022/06/11 00:25:53;;;;;;;9.60;8.60;;;;;;;17.65;100.00;100306.94;1525513;85;21261;-87
2022/06/11 00:28:20;;;;;;;13.87;10.00;;;;;;;17.66;100.00;100309.92;1402682;87;21197;-86
2022/06/11 00:30:47;;;;;;;10.57;9.47;;;;;;;17.66;100.00;100301.37;1412210;86;22193;-87
2022/06/11 00:33:15;;;;;;;11.67;8.97;;;;;;;17.72;100.00;100313.14;1452139;87;22173;-87
2022/06/11 00:35:42;;;;;;;10.23;8.57;;;;;;;17.74;100.00;100315.12;1414199;87;21305;-88
2022/06/11 00:38:09;;;;;;;10.23;8.13;;;;;;;17.71;100.00;100312.32;1506534;85;21276;-87
2022/06/11 00:40:39;;;;;;;13.23;8.80;;;;;;;17.73;100.00;100320.16;1409508;87;21241;-88
2022/06/11 00:43:07;;;;;;;8.63;7.00;;;;;;;17.77;100.00;100320.07;1554952;87;21259;-87
2022/06/11 00:45:39;;;;;;;8.10;7.23;;;;;;;17.73;100.00;100318.83;1440797;87;21367;-86
2022/06/11 00:48:35;;;;;;;11.37;8.30;;;;;;;17.71;100.00;100313.66;1390267;89;21271;-86
2022/06/11 00:51:15;;;;;;;9.63;7.13;;;;;;;17.76;100.00;100315.23;1541597;89;21278;-87
2022/06/11 00:53:56;;;;;;;9.53;8.30;;;;;;;17.71;100.00;100316.85;1392322;90;21263;-87
2022/06/11 00:56:28;;;;;;;9.08;6.80;;;;;;;17.69;100.00;100318.89;1507841;86;22187;-86
2022/06/11 00:58:59;;;;;;;10.40;8.27;;;;;;;17.63;100.00;100319.67;1496473;86;21323;-87
2022/06/11 01:01:26;;;;;;;9.87;7.73;;;;;;;17.62;100.00;100322.05;1594941;86;21278;-86
2022/06/11 01:03:56;;;;;;;9.93;8.00;;;;;;;17.59;100.00;100324.60;1562453;86;21345;-88
2022/06/11 01:06:36;;;;;;;8.63;7.72;;;;;;;17.60;100.00;100328.92;1440656;87;21286;-88
2022/06/11 01:09:09;;;;;;;;;;;;;;;17.56;100.00;100329.83;1494534;86;21367;-86
2022/06/11 01:12:15;;;;;;;9.80;8.80;;;;;;;17.57;100.00;100330.13;1518530;87;20237;-87
2022/06/11 01:14:50;;;;;;;9.10;7.80;;;;;;;17.55;100.00;100335.36;1426810;87;21330;-86
2022/06/11 01:17:33;;;;;;;9.40;8.00;;;;;;;17.56;100.00;100341.87;1420564;87;21589;-87
2022/06/11 01:20:32;;;;;;;10.23;8.83;;;;;;;17.51;100.00;100335.45;1488853;88;21315;-87
2022/06/11 01:23:30;;;;;;;10.95;8.28;;;;;;;17.55;100.00;100337.55;1399417;89;22245;-90
2022/06/11 01:26:19;;;;;;;8.23;7.30;;;;;;;17.50;100.00;100340.50;1582615;87;21202;-90
2022/06/11 01:29:09;;;;;;;11.90;7.90;;;;;;;17.53;100.00;100347.62;1582391;87;21371;-89
2022/06/11 01:31:57;;;;;;;10.43;7.67;;;;;;;17.54;100.00;100350.59;1572653;87;22085;-89
2022/06/11 01:35:03;;;;;;;10.93;7.27;;;;;;;17.56;100.00;100351.23;1401032;90;21342;-89
2022/06/11 01:37:38;;;;;;;7.23;6.23;;;;;;;17.56;100.00;100357.11;1564122;86;21268;-88
2022/06/11 01:40:38;;;;;;;6.70;6.10;;;;;;;17.47;100.00;100344.39;1458949;86;22351;-87
2022/06/11 01:43:18;;;;;;;9.28;6.17;;;;;;;17.47;99.80;100356.94;1582286;87;22251;-87
2022/06/11 01:45:45;;;;;;;;;;;;;;;17.47;98.95;100372.99;1559145;87;22669;-87
2022/06/11 01:48:16;;;;;;;4.23;3.80;;;;;;;17.39;94.72;100372.61;1452081;87;20278;-87
2022/06/11 01:50:50;;;;;;;6.20;2.97;;;;;;;17.40;94.53;100370.25;1399618;89;22339;-87
2022/06/11 01:53:40;;;;;;;9.30;3.00;;;;;;;17.32;91.46;100379.73;1568702;87;22172;-87
2022/06/11 01:56:33;;;;;;;12.77;3.50;;;;;;;17.21;90.69;100384.30;1409242;89;21291;-86
2022/06/11 01:59:30;;;;;;;6.77;2.20;;;;;;;17.19;90.84;100383.66;1453436;88;22380;-86
2022/06/11 02:02:04;;;;;;;4.03;2.43;;;;;;;17.08;90.38;100395.17;1570875;87;21374;-87
2022/06/11 02:05:02;;;;;;;4.20;2.00;;;;;;;17.05;90.36;100383.52;1426288;87;22267;-89
2022/06/11 02:07:57;;;;;;;2.67;2.00;;;;;;;17.00;89.93;100403.82;1460662;89;21315;-89
2022/06/11 02:10:41;;;;;;;3.50;2.63;;;;;;;16.96;90.28;100403.37;1547319;87;21323;-87
2022/06/11 02:13:19;;;;;;;4.67;2.60;;;;;;;16.91;90.61;100399.92;1446951;87;21462;-87
2022/06/11 02:16:14;;;;;;;4.47;2.83;;;;;;;16.89;90.58;100406.51;1403985;89;21293;-87
2022/06/11 02:18:43;;;;;;;3.87;2.60;;;;;;;16.81;91.70;100401.27;1490593;86;22252;-87
2022/06/11 02:21:15;;;;;;;3.83;3.30;;;;;;;16.73;92.00;100399.50;1570409;86;21254;-87
2022/06/11 02:24:01;;;;;;;4.07;3.30;;;;;;;16.77;92.16;100397.30;1575592;85;21305;-88
2022/06/11 02:26:33;;;;;;;8.90;3.43;;;;;;;16.74;93.64;100396.31;1513483;87;21283;-87
2022/06/11 02:29:01;;;;;;;6.27;3.90;;;;;;;16.74;93.45;100393.13;1577097;87;21306;-88
2022/06/11 02:31:32;;;;;;;8.07;4.10;;;;;;;16.70;93.81;100384.67;1549518;86;21221;-87
2022/06/11 02:34:05;;;;;;;3.87;3.40;;;;;;;16.70;94.00;100384.67;1509676;89;21387;-88
2022/06/11 02:36:46;;;;;;;5.27;3.90;;;;;;;16.67;94.95;100387.72;1571917;87;21224;-88
2022/06/11 02:39:12;;;;;;;5.42;3.50;;;;;;;16.66;95.04;100382.07;1437992;86;21250;-87
2022/06/11 02:41:38;;;;;;;4.83;3.83;;;;;;;16.61;95.71;100377.79;1411403;87;22215;-86
2022/06/11 02:44:04;;;;;;;4.37;3.87;;;;;;;16.62;96.26;100371.42;1415076;87;21268;-86
2022/06/11 02:46:43;;;;;;;5.40;3.80;;;;;;;16.66;96.04;100374.05;1416099;87;21447;-86
2022/06/11 02:49:26;;;;;;;7.50;4.17;;;;;;;16.70;96.34;100368.64;1590528;85;22046;-86
2022/06/11 02:51:57;;;;;;;7.83;3.70;;;;;;;16.68;96.45;100376.52;1568230;87;21228;-86
2022/06/11 02:54:25;;;;;;;4.70;3.20;;;;;;;16.70;96.20;100371.82;1575436;87;21254;-88
2022/06/11 02:56:55;;;;;;;5.17;3.57;;;;;;;16.79;96.07;100383.25;1407829;87;21334;-88
2022/06/11 02:59:24;;;;;;;4.27;3.47;;;;;;;16.78;96.56;100380.27;1473410;86;22200;-86
2022/06/11 03:01:52;;;;;;;9.17;4.30;;;;;;;16.78;96.24;100373.08;1405968;86;22839;-87
2022/06/11 03:04:20;;;;;;;5.40;3.97;;;;;;;16.86;95.72;100366.77;1502176;88;22190;-87
2022/06/11 03:06:47;;;;;;;7.33;4.33;;;;;;;16.90;95.86;100378.75;1410652;88;21254;-87
2022/06/11 03:09:18;;;;;;;8.47;4.23;;;;;;;16.91;95.83;100367.84;1414978;87;22201;-86
2022/06/11 03:11:45;;;;;;;7.80;3.87;;;;;;;16.87;96.00;100360.42;1579822;87;22289;-87
2022/06/11 03:14:12;;;;;;;4.33;3.80;;;;;;;16.91;95.79;100362.50;1414668;86;21328;-89
2022/06/11 03:16:38;;;;;;;5.97;3.33;;;;;;;16.89;96.50;100371.24;1513001;86;21279;-89
2022/06/11 03:19:07;;;;;;;3.87;3.33;;;;;;;16.84;97.04;100374.17;1406061;87;21308;-89
2022/06/11 03:21:34;;;;;;;4.70;3.77;;;;;;;16.89;96.97;100383.78;1551129;88;21332;-88
2022/06/11 03:24:00;;;;;;;4.77;3.70;;;;;;;16.87;97.52;100379.13;1519311;88;21234;-91
2022/06/11 03:26:27;;;;;;;8.30;4.20;;;;;;;16.85;97.33;100381.16;1399974;88;21300;-89
2022/06/11 03:28:53;;;;;;;3.33;2.87;;;;;;;16.86;97.82;100378.31;1487267;88;21267;-89
2022/06/11 03:31:19;;;;;;;6.80;3.60;;;;;;;16.86;98.43;100386.81;1400243;88;22189;-89
2022/06/11 03:33:45;;;;;;;4.30;3.30;;;;;;;16.84;98.00;100391.02;1519777;88;21334;-88
2022/06/11 03:36:16;;;;;;;5.80;3.17;;;;;;;16.91;97.76;100391.08;1417874;88;21312;-90
2022/06/11 03:38:44;;;;;;;4.67;3.60;;;;;;;16.95;97.29;100393.72;1526091;88;21326;-89
2022/06/11 03:41:11;;;;;;;4.20;3.60;;;;;;;16.94;97.94;100402.73;1451477;88;21253;-89
2022/06/11 03:43:38;;;;;;;6.20;3.00;;;;;;;16.95;97.65;100408.42;1400016;88;21237;-88
2022/06/11 03:46:06;;;;;;;6.87;3.20;;;;;;;16.99;96.94;100398.17;1523057;88;21193;-91
2022/06/11 03:48:36;;;;;;;5.20;3.10;;;;;;;16.93;97.50;100407.77;1398653;88;21308;-89
2022/06/11 03:51:03;;;;;;;3.60;2.98;;;;;;;16.97;97.26;100405.02;1396611;88;21220;-88
2022/06/11 03:53:30;;;;;;;7.77;3.07;;;;;;;17.04;97.24;100411.28;1457702;88;21252;-89
2022/06/11 03:55:57;;;;;;;3.87;2.87;;;;;;;17.06;97.11;100408.41;1400317;88;21249;-88
2022/06/11 03:58:25;;;;;;;6.00;2.90;;;;;;;17.07;96.73;100405.55;1494239;87;21219;-89
2022/06/11 04:03:37;;;;;;;8.13;3.03;;;;;;;17.17;95.85;100395.05;1562479;88;21153;-88
2022/06/11 04:06:05;;;;;;;5.73;3.30;;;;;;;17.18;95.72;100395.38;1466718;88;22104;-88
2022/06/11 04:08:31;;;;;;;4.10;3.13;;;;;;;17.24;95.21;100394.61;1398710;88;22101;-88
2022/06/11 04:10:59;;;;;;;3.10;2.80;;;;;;;17.23;94.24;100394.27;1523401;88;21304;-87
2022/06/11 04:13:27;;;;;;;2.70;2.50;;;;;;;17.28;94.01;100399.87;1405130;88;21245;-87
2022/06/11 04:15:54;;;;;;;4.30;2.80;;;;;;;17.31;93.57;100407.52;1398127;88;21230;-91
2022/06/11 04:18:41;;;;;;;4.10;2.90;;;;;;;17.28;92.59;100399.36;1455674;87;21223;-89
2022/06/11 04:21:10;;;;;;;7.47;2.83;;;;;;;17.30;91.73;100397.85;1403206;87;21339;-89
2022/06/11 04:23:39;;;;;;;3.60;2.47;;;;;;;17.29;89.61;100397.03;1548988;86;21276;-91
2022/06/11 04:26:10;;;;;;;2.57;2.30;;;;;;;17.36;89.51;100395.22;1417116;87;21247;-90
2022/06/11 04:28:36;;;;;;;3.50;2.37;;;;;;;17.38;88.48;100397.72;1581092;86;22149;-92
2022/06/11 04:31:05;;;;;;;5.07;2.10;;;;;;;17.43;88.40;100405.15;1489116;86;21306;-88
2022/06/11 04:33:32;;;;;;;5.47;2.13;;;;;;;17.45;87.14;100403.94;1405980;87;22092;-89
2022/06/11 04:35:58;;;;;;;3.83;2.50;;;;;;;17.44;87.23;100406.31;1512206;87;21323;-89
2022/06/11 04:38:24;;;;;;;2.97;1.90;;;;;;;17.42;87.43;100411.53;1411187;86;21239;-90
2022/06/11 04:40:51;;;;;;;5.07;2.30;;;;;;;17.44;88.41;100410.32;1416856;86;21187;-91
2022/06/11 04:43:17;;;;;;;3.03;2.67;;;;;;;17.44;87.58;100406.83;1468368;87;21254;-89
2022/06/11 04:45:43;;;;;;;3.57;2.60;;;;;;;17.43;88.44;100407.31;1417674;87;22119;-91
2022/06/11 04:48:10;;;;;;;4.30;2.77;;;;;;;17.45;88.15;100413.82;1515243;87;21261;-86
2022/06/11 04:50:38;;;;;;;3.13;2.43;;;;;;;17.45;88.71;100413.30;1399628;88;21462;-87
2022/06/11 04:53:05;;;;;;;5.97;3.53;;;;;;;17.45;89.02;100415.98;1404125;87;21382;-86
2022/06/11 04:55:34;;;;;;;5.63;3.07;;;;;;;17.53;88.68;100418.52;1443368;85;21409;-89
2022/06/11 04:58:00;;;;;;;5.00;3.77;;;;;;;17.57;88.67;100433.67;1547169;87;21306;-88
2022/06/11 05:00:30;;;;;;;3.90;3.50;;;;;;;17.57;88.68;100437.17;1486617;86;21352;-88
2022/06/11 05:02:57;;;;;;;;;;;;;;;17.62;88.13;100439.28;1562748;87;21415;-88
2022/06/11 05:05:24;;;;;;;7.37;4.70;;;;;;;17.60;88.89;100442.14;1535897;87;20270;-87
2022/06/11 05:07:51;;;;;;;7.93;4.10;;;;;;;17.67;88.15;100446.74;1563905;87;21315;-89
2022/06/11 05:10:21;;;;;;;6.37;3.67;;;;;;;17.71;88.08;100445.33;1394460;89;21328;-88
2022/06/11 05:12:47;;;;;;;4.28;3.70;;;;;;;17.69;87.73;100458.88;1489799;85;22687;-90
2022/06/11 05:15:14;;;;;;;4.20;3.80;;;;;;;17.69;88.00;100458.06;1416659;87;21242;-90
2022/06/11 05:17:41;;;;;;;4.47;3.67;;;;;;;17.74;87.69;100458.31;1545639;85;21321;-89
2022/06/11 05:20:09;;;;;;;5.20;3.97;;;;;;;17.70;87.34;100462.41;1423147;86;22222;-88
2022/06/11 05:22:36;;;;;;;5.03;3.73;;;;;;;17.73;87.01;100456.67;1408644;87;21335;-89
2022/06/11 05:25:04;;;;;;;5.00;3.87;;;;;;;17.74;87.36;100452.97;1452618;87;21243;-89
2022/06/11 05:27:31;;;;;;;4.87;3.47;;;;;;;17.78;87.29;100454.25;1402517;88;21237;-88
2022/06/11 05:30:06;;;;;;;4.40;4.00;;;;;;;17.78;87.28;100451.58;1505904;87;21243;-89
2022/06/11 05:32:37;;;;;;;5.70;4.57;;;;;;;17.79;87.49;100461.28;1407108;85;21265;-87
2022/06/11 05:35:08;;;;;;;7.87;3.80;;;;;;;17.86;87.08;100463.48;1570397;87;21247;-88
2022/06/11 05:37:34;;;;;;;4.23;3.77;;;;;;;17.88;86.18;100453.41;1523948;86;21321;-86
2022/06/11 05:40:02;;;;;;;10.77;3.73;;;;;;;17.94;86.02;100456.64;1415335;86;21357;-87
2022/06/11 05:42:28;;;;;;;4.05;3.25;;;;;;;18.01;84.94;100453.52;1518191;86;21206;-87
2022/06/11 05:44:55;;;;;;;3.87;3.47;;;;;;;18.09;84.80;100457.05;1403874;88;22156;-88
2022/06/11 05:47:25;;;;;;;3.65;3.35;;;;;;;18.14;84.63;100459.98;1572148;87;21202;-88
2022/06/11 05:49:55;;;;;;;3.60;3.12;;;;;;;18.15;83.35;100473.16;1445909;86;21339;-89
2022/06/11 05:52:26;;;;;;;3.08;2.77;;;;;;;18.26;83.61;100471.27;1562526;87;21185;-87
2022/06/11 05:55:17;;;;;;;6.95;2.72;;;;;;;18.30;83.63;100476.23;1575147;87;22090;-87
2022/06/11 05:58:06;;;;;;;3.47;2.95;;;;;;;18.38;83.29;100484.95;1530260;87;22131;-90
2022/06/11 06:00:51;;;;;;;3.80;3.20;;;;;;;18.49;83.56;100479.55;1574193;87;21236;-88
2022/06/11 06:03:36;;;;;;;6.30;3.35;;;;;;;18.63;83.05;100485.81;1454591;87;22207;-88
2022/06/11 06:06:20;;;;;;;6.05;3.65;;;;;;;18.81;83.05;100484.78;1551636;87;21366;-79
2022/06/11 06:08:46;;;;;;;5.08;2.52;;;;;;;19.15;82.13;100480.36;1413151;87;21435;-80
2022/06/11 06:11:12;;;;;;;6.12;3.08;;;;;;;19.44;80.76;100486.41;1412430;88;21434;-80
2022/06/11 06:13:47;;;;;;;3.35;3.12;;;;;;;19.59;78.86;100487.03;1577082;87;21454;-79
2022/06/11 06:16:19;;;;;;;6.33;2.55;;;;;;;19.72;77.50;100484.40;1440112;87;21281;-80
2022/06/11 06:18:47;;;;;;;4.75;2.75;;;;;;;19.79;75.09;100485.24;1396749;88;22426;-79
2022/06/11 06:21:18;;;;;;;6.12;3.12;;;;;;;19.84;75.14;100482.73;1556092;87;21389;-80
2022/06/11 06:23:44;;;;;;;2.87;2.67;;;;;;;20.04;74.39;100487.28;1480203;87;21341;-80
2022/06/11 06:26:10;;;;;;;7.37;3.15;;;;;;;20.30;75.51;100481.03;1400044;88;21223;-79
2022/06/11 06:28:37;;;;;;;5.78;3.45;;;;;;;20.51;75.16;100493.38;1526205;88;21304;-81
2022/06/11 06:31:06;;;;;;;7.22;2.87;;;;;;;20.59;72.07;100493.19;1411893;88;21245;-81
2022/06/11 06:33:32;;;;;;;8.58;2.75;;;;;;;20.70;72.31;100495.22;1397219;88;22147;-80
2022/06/11 06:36:01;;;;;;;3.70;2.98;;;;;;;20.65;71.74;100489.64;1444811;88;21384;-81
2022/06/11 06:38:28;;;;;;;6.42;3.33;;;;;;;20.71;71.20;100496.04;1370609;90;21371;-82
2022/06/11 06:40:54;;;;;;;3.15;2.72;;;;;;;20.64;71.30;100501.45;1511701;88;21263;-82
2022/06/11 06:43:21;;;;;;;6.55;3.02;;;;;;;20.64;71.30;100501.45;1400314;88;21345;-82
2022/06/11 06:45:48;;;;;;;5.60;3.27;;;;;;;20.84;71.11;100508.63;1399449;88;21312;-82
2022/06/11 06:48:14;;;;;;;3.47;3.17;;;;;;;20.90;71.80;100505.08;1446534;88;22107;-82
2022/06/11 06:50:40;;;;;;;3.30;2.75;;;;;;;20.79;70.61;100503.05;1397117;88;22152;-82
2022/06/11 06:53:07;;;;;;;3.33;3.02;;;;;;;20.67;71.48;100503.71;1489197;88;21236;-83
2022/06/11 06:55:33;;;;;;;12.35;2.70;;;;;;;20.84;72.33;100501.91;1376097;89;21252;-83
2022/06/11 06:57:59;;;;;;;7.83;3.20;;;;;;;20.99;71.22;100502.45;1534452;87;23117;-82
2022/06/11 07:00:26;;;;;;;4.58;2.95;;;;;;;21.27;71.91;100506.14;1422834;88;21296;-82
2022/06/11 07:02:53;;;;;;;3.83;3.52;;;;;;;21.34;69.46;100510.95;1395142;88;21310;-81
2022/06/11 07:05:21;;;;;;;6.33;3.15;;;;;;;21.34;69.74;100514.98;1472939;88;22235;-82
2022/06/11 07:07:49;;;;;;;4.90;3.35;;;;;;;21.53;69.99;100515.95;1393202;88;21265;-82
2022/06/11 07:10:18;;;;;;;4.47;3.50;;;;;;;21.61;68.43;100523.77;1524912;88;21361;-82
2022/06/11 07:12:45;;;;;;;6.03;3.58;;;;;;;21.65;67.87;100519.29;1405957;88;21361;-82
2022/06/11 07:15:11;;;;;;;6.83;4.20;;;;;;;21.71;68.31;100521.92;1397782;88;21309;-81
2022/06/11 07:17:45;;;;;;;7.87;4.25;;;;;;;21.61;68.88;100515.69;1458764;87;21176;-81
2022/06/11 07:20:17;;;;;;;7.00;3.72;;;;;;;21.49;67.67;100516.09;1401920;87;22403;-82
2022/06/11 07:23:06;;;;;;;4.87;4.12;;;;;;;21.22;68.23;100515.37;1446280;85;21316;-80
2022/06/11 07:25:33;;;;;;;6.72;4.70;;;;;;;21.44;70.28;100511.05;1562636;85;21428;-81
2022/06/11 07:28:04;;;;;;;5.25;4.22;;;;;;;21.48;68.83;100504.17;1407375;88;21375;-82
2022/06/11 07:30:35;;;;;;;5.40;3.85;;;;;;;21.46;69.00;100504.38;1486904;85;21271;-80
2022/06/11 07:33:08;;;;;;;6.78;3.30;;;;;;;21.38;67.80;100499.28;1570065;85;21336;-80
2022/06/11 07:35:36;;;;;;;7.15;3.77;;;;;;;21.42;68.22;100502.36;1551298;87;21279;-81
2022/06/11 07:38:05;;;;;;;7.12;3.95;;;;;;;21.81;69.34;100501.25;1409743;87;21313;-81
2022/06/11 07:40:31;;;;;;;10.20;4.25;;;;;;;22.10;68.06;100490.32;1387459;88;21233;-81
2022/06/11 07:42:57;;;;;;;6.53;4.83;;;;;;;22.08;66.74;100491.88;1492144;87;21263;-81
2022/06/11 07:45:23;;;;;;;4.60;3.45;;;;;;;22.23;68.56;100501.52;1405953;86;21264;-81
2022/06/11 07:47:56;;;;;;;5.70;4.10;;;;;;;22.47;67.28;100497.95;1436540;87;21290;-81
2022/06/11 07:50:30;;;;;;;4.17;3.77;;;;;;;22.64;65.21;100498.68;1542316;89;21345;-80
2022/06/11 07:52:57;;;;;;;4.15;3.35;;;;;;;22.45;63.60;100504.62;1550165;87;21314;-81
2022/06/11 07:55:24;;;;;;;4.37;3.58;;;;;;;22.42;64.79;100499.14;1498566;87;21261;-80
2022/06/11 07:57:50;;;;;;;3.62;2.70;;;;;;;22.58;64.59;100500.94;1409519;87;21175;-80
2022/06/11 08:00:23;;;;;;;2.90;2.60;;;;;;;22.58;64.82;100490.97;1408464;87;21360;-82
2022/06/11 08:02:49;;;;;;;6.37;3.12;;;;;;;22.48;62.86;100487.98;1429910;88;21455;-80
2022/06/11 08:05:16;;;;;;;4.30;3.12;;;;;;;22.71;64.45;100497.56;1570170;87;21327;-81
2022/06/11 08:07:42;;;;;;;3.42;2.85;;;;;;;22.79;63.30;100496.95;1479335;87;21395;-82
2022/06/11 08:10:10;;;;;;;10.00;4.15;;;;;;;22.57;62.46;100494.72;1403724;87;22026;-81
2022/06/11 08:12:36;;;;;;;3.30;3.00;;;;;;;22.57;63.14;100487.16;1507192;87;21279;-81
2022/06/11 08:15:03;;;;;;;4.28;2.75;;;;;;;22.41;62.63;100485.38;1406699;88;21232;-82
2022/06/11 08:17:32;;;;;;;2.60;2.35;;;;;;;22.47;61.79;100487.67;1415932;87;21372;-82
2022/06/11 08:19:58;;;;;;;3.65;3.20;;;;;;;22.64;62.46;100482.50;1446126;85;21348;-83
2022/06/11 08:22:25;;;;;;;6.12;3.20;;;;;;;22.76;63.38;100482.06;1562349;86;22227;-85
2022/06/11 08:24:51;;;;;;;5.20;3.67;;;;;;;22.94;63.72;100480.67;1484564;88;21234;-82
2022/06/11 08:27:17;;;;;;;5.83;3.50;;;;;;;23.08;64.07;100476.49;1525203;87;21391;-81
2022/06/11 08:29:44;;;;;;;3.98;3.08;;;;;;;23.15;63.06;100486.66;1403850;88;21205;-82
2022/06/11 08:32:11;;;;;;;4.72;3.27;;;;;;;23.21;63.42;100476.28;1400900;88;21219;-82
2022/06/11 08:34:40;;;;;;;4.83;3.20;;;;;;;23.24;61.91;100483.10;1462751;87;21233;-81
2022/06/11 08:37:06;;;;;;;6.78;3.05;;;;;;;23.36;62.91;100482.10;1384799;89;21238;-81
2022/06/11 08:39:33;;;;;;;4.33;3.22;;;;;;;23.45;60.61;100481.75;1439109;87;21319;-82
2022/06/11 08:41:59;;;;;;;4.78;2.80;;;;;;;23.35;60.80;100486.38;1402124;87;21315;-85
2022/06/11 08:44:28;;;;;;;3.30;3.00;;;;;;;23.45;62.72;100481.25;1401891;87;22309;-85
2022/06/11 08:46:57;;;;;;;6.42;3.20;;;;;;;23.34;61.14;100486.09;1434092;88;22084;-86
2022/06/11 08:49:46;;;;;;;5.03;2.90;;;;;;;23.46;61.75;100486.11;1563135;88;21249;-84
2022/06/11 08:52:27;;;;;;;7.95;3.05;;;;;;;23.48;61.51;100490.73;1564139;86;21315;-85
2022/06/11 08:54:53;;;;;;;6.40;2.83;;;;;;;23.43;61.57;100487.40;1414180;88;21241;-86
2022/06/11 08:57:39;;;;;;;7.45;2.98;;;;;;;23.56;62.25;100491.76;1402377;88;21245;-86
2022/06/11 09:00:38;;;;;;;6.47;3.08;;;;;;;23.46;61.22;100487.47;1545112;88;21234;-84
2022/06/11 09:03:32;;;;;;;4.42;2.60;;;;;;;23.57;62.47;100478.03;1556133;87;21301;-87
2022/06/11 09:06:15;;;;;;;6.50;3.15;;;;;;;23.72;62.34;100484.91;1562005;88;21256;-85
2022/06/11 09:09:02;;;;;;;7.75;3.12;;;;;;;23.82;61.47;100485.98;1501956;88;21248;-87
2022/06/11 09:11:58;;;;;;;5.50;2.85;;;;;;;23.57;59.58;100483.97;1550764;88;21175;-86
2022/06/11 09:14:44;;;;;;;3.85;2.62;;;;;;;23.54;60.38;100476.34;1564268;88;22243;-86
2022/06/11 09:17:32;;;;;;;8.33;2.55;;;;;;;23.70;61.93;100486.47;1563315;88;22609;-87
2022/06/11 09:20:22;;;;;;;6.05;2.72;;;;;;;23.52;59.07;100477.09;1484433;88;21605;-85
2022/06/11 09:23:13;;;;;;;4.00;2.55;;;;;;;23.60;60.20;100480.27;1400420;89;21378;-85
2022/06/11 09:25:48;;;;;;;3.50;3.17;;;;;;;23.83;62.29;100484.91;1550117;88;21352;-92
2022/06/11 09:28:20;;;;;;;8.95;2.83;;;;;;;24.05;61.63;100473.51;1544143;88;21433;-90
2022/06/11 09:30:54;;;;;;;3.67;3.02;;;;;;;24.24;60.71;100476.92;1564214;87;21182;-93
2022/06/11 09:33:40;;;;;;;3.55;2.58;;;;;;;24.45;59.72;100480.91;1479219;88;21437;-90
2022/06/11 09:36:23;;;;;;;5.40;2.33;;;;;;;24.55;57.58;100471.67;1402201;87;21481;-91
2022/06/11 09:39:03;;;;;;;4.20;2.75;;;;;;;24.50;58.55;100475.62;1400219;88;21381;-90
2022/06/11 09:41:59;;;;;;;6.30;2.20;;;;;;;24.57;58.70;100488.50;1564194;87;21263;-89
2022/06/11 09:44:45;;;;;;;5.90;3.35;;;;;;;24.61;56.60;100481.54;1564239;88;21304;-89
2022/06/11 09:47:32;;;;;;;4.20;2.33;;;;;;;24.60;55.26;100489.38;1399896;89;21495;-88
2022/06/11 09:50:23;;;;;;;9.88;3.15;;;;;;;24.49;55.90;100495.63;1484530;88;22221;-89
2022/06/11 09:53:01;;;;;;;10.25;2.87;;;;;;;24.44;57.08;100490.92;1561282;88;21278;-89
2022/06/11 09:55:52;;;;;;;12.98;2.85;;;;;;;24.52;58.03;100491.91;1431114;88;21293;-90
2022/06/11 09:58:29;;;;;;;2.45;2.22;;;;;;;24.39;55.92;100483.19;1483122;88;21330;-89
2022/06/11 10:01:06;;;;;;;7.90;3.33;;;;;;;24.15;57.47;100483.75;1384381;89;21324;-89
2022/06/11 10:03:50;;;;;;;6.80;2.72;;;;;;;24.05;59.01;100494.63;1405523;89;21303;-90
2022/06/11 10:06:27;;;;;;;5.95;2.95;;;;;;;24.29;58.47;100498.14;1453467;88;22442;-88
2022/06/11 10:08:59;;;;;;;3.90;2.67;;;;;;;24.38;59.32;100493.73;1399103;89;21264;-88
2022/06/11 10:11:45;;;;;;;8.05;2.72;;;;;;;24.59;58.26;100499.06;1437314;87;22354;-89
2022/06/11 10:14:44;;;;;;;6.97;3.10;;;;;;;24.41;57.00;100494.60;1420067;88;22146;-90
2022/06/11 10:17:22;;;;;;;4.53;3.02;;;;;;;24.75;59.71;100500.50;1564463;87;21334;-89
2022/06/11 10:20:07;;;;;;;5.55;2.77;;;;;;;24.95;56.21;100496.03;1482492;87;22316;-90
2022/06/11 10:22:41;;;;;;;8.35;2.83;;;;;;;25.03;55.10;100493.98;1530155;86;21367;-89
2022/06/11 10:25:28;;;;;;;14.13;2.45;;;;;;;25.07;55.34;100487.05;1392348;89;21175;-89
2022/06/11 10:28:12;;;;;;;3.85;2.47;;;;;;;24.78;53.95;100491.09;1448212;88;21375;-91
2022/06/11 10:31:01;;;;;;;3.37;2.27;;;;;;;24.70;54.28;100490.10;1555295;88;21242;-89
2022/06/11 10:33:36;;;;;;;3.83;2.72;;;;;;;24.75;55.19;100478.85;1552455;88;22229;-90
2022/06/11 10:36:19;;;;;;;15.10;3.67;;;;;;;25.05;56.64;100483.20;1484724;88;21244;-89
2022/06/11 10:39:05;;;;;;;4.67;2.87;;;;;;;24.94;55.79;100482.19;1379261;91;21274;-88
2022/06/11 10:41:58;;;;;;;6.15;2.40;;;;;;;25.11;55.76;100482.23;1547704;88;21315;-93
2022/06/11 10:44:35;;;;;;;5.45;2.40;;;;;;;24.98;55.27;100480.66;1459913;88;21349;-87
2022/06/11 10:47:01;;;;;;;6.15;3.20;;;;;;;24.99;55.77;100481.47;1555264;88;21253;-89
2022/06/11 10:49:28;;;;;;;3.72;2.90;;;;;;;25.17;56.14;100481.30;1555385;88;21238;-90
2022/06/11 10:52:02;;;;;;;5.35;2.92;;;;;;;25.25;56.00;100486.86;1376789;88;21239;-89
2022/06/11 10:54:28;;;;;;;4.15;2.92;;;;;;;25.17;54.79;100481.30;1391940;89;21415;-87
2022/06/11 10:57:03;;;;;;;6.95;2.80;;;;;;;25.11;55.60;100480.88;1490259;87;21450;-90
2022/06/11 10:59:46;;;;;;;5.45;2.67;;;;;;;25.13;55.66;100469.83;1498064;88;22596;-91
2022/06/11 11:02:27;;;;;;;3.40;2.42;;;;;;;25.21;55.64;100466.76;1397732;88;21309;-89
2022/06/11 11:05:04;;;;;;;5.28;2.98;;;;;;;25.41;56.33;100463.05;1554984;88;21305;-89
2022/06/11 11:08:03;;;;;;;8.55;3.30;;;;;;;25.50;56.28;100463.47;1418497;88;22187;-91
2022/06/11 11:10:44;;;;;;;7.42;2.62;;;;;;;25.53;56.08;100457.55;1379970;89;21235;-90
2022/06/11 11:13:34;;;;;;;8.63;3.50;;;;;;;26.01;55.49;100458.88;1490268;88;21340;-88
2022/06/11 11:16:11;;;;;;;11.18;2.62;;;;;;;26.05;52.86;100453.23;1393367;88;21390;-88
2022/06/11 11:18:42;;;;;;;3.42;2.58;;;;;;;25.85;53.60;100452.94;1396556;88;21316;-88
2022/06/11 11:21:23;;;;;;;7.97;3.17;;;;;;;25.51;54.53;100454.26;1419240;87;21289;-86
2022/06/11 11:23:52;;;;;;;3.33;2.55;;;;;;;25.43;53.69;100457.37;1391883;88;21229;-89
2022/06/11 11:26:41;;;;;;;8.13;2.50;;;;;;;25.37;53.76;100449.69;1493175;88;21362;-88
2022/06/11 11:29:40;;;;;;;13.45;3.52;;;;;;;25.08;54.04;100451.59;1539517;88;21279;-88
2022/06/11 11:32:37;;;;;;;4.42;2.27;;;;;;;25.45;56.88;100447.12;1519326;86;21305;-88
2022/06/11 11:35:24;;;;;;;3.83;2.70;;;;;;;25.26;54.77;100439.77;1556893;86;21269;-89
2022/06/11 11:38:02;;;;;;;8.75;2.85;;;;;;;25.47;54.88;100435.52;1519320;86;22684;-87
2022/06/11 11:40:35;;;;;;;6.55;3.00;;;;;;;25.84;54.26;100439.10;1445598;87;21309;-89
2022/06/11 11:43:08;;;;;;;7.70;4.00;;;;;;;26.01;53.69;100427.70;1542498;86;22085;-89
2022/06/11 11:45:48;;;;;;;5.17;2.37;;;;;;;25.97;53.01;100422.47;1587387;86;22708;-89
2022/06/11 11:48:44;;;;;;;;;;;;;;;26.00;52.19;100423.33;1556266;86;21273;-84
2022/06/11 11:51:14;;;;;;;6.53;3.00;;;;;;;26.00;52.95;100421.97;1452309;88;20840;-85
2022/06/11 11:53:45;;;;;;;8.90;3.40;;;;;;;26.15;53.41;100420.53;1537729;87;22234;-86
2022/06/11 11:56:44;;;;;;;5.87;3.58;;;;;;;26.29;52.94;100423.16;1562352;87;21235;-86
2022/06/11 11:59:27;;;;;;;12.98;4.70;;;;;;;26.30;51.44;100424.83;1453500;86;22146;-87